Time;durP1;ratioP1;P1;durP2;ratioP2;P2;SDS_P1;SDS_P2;PMS_P1;PMS_P2;Temp;Humidity;BMP_temperature;BMP_pressure;BME280_temperature;BME280_humidity;BME280_pressure;Samples;Min_cycle;Max_cycle;Signal;HPM_P1;HPM_P2
2023/03/06 00:00:02;;;;;;;1.60;1.40;;;4.10;98.20;;;;;;5027237;28;20455;-77
2023/03/06 00:02:30;;;;;;;1.53;1.30;;;4.10;98.20;;;;;;5015973;28;20489;-76
2023/03/06 00:04:57;;;;;;;1.60;1.50;;;4.10;98.20;;;;;;5020763;28;20474;-76
2023/03/06 00:07:24;;;;;;;1.73;1.63;;;4.10;98.20;;;;;;5015899;28;21050;-76
2023/03/06 00:09:51;;;;;;;1.60;1.30;;;4.10;98.20;;;;;;5025234;28;20470;-76
2023/03/06 00:12:17;;;;;;;1.60;1.50;;;4.10;98.20;;;;;;5012072;28;20483;-77
2023/03/06 00:14:44;;;;;;;1.60;1.30;;;4.00;98.20;;;;;;5025862;28;20460;-76
2023/03/06 00:17:11;;;;;;;1.60;1.40;;;4.10;98.20;;;;;;5014594;28;20884;-78
2023/03/06 00:19:39;;;;;;;1.60;1.30;;;4.00;98.20;;;;;;5020418;28;20470;-75
2023/03/06 00:22:06;;;;;;;1.60;1.50;;;4.00;98.20;;;;;;5014826;28;20483;-76
2023/03/06 00:24:33;;;;;;;1.60;1.43;;;4.00;98.20;;;;;;5026976;28;20466;-76
2023/03/06 00:26:59;;;;;;;1.60;1.40;;;4.00;98.20;;;;;;5014105;28;20490;-76
2023/03/06 00:29:26;;;;;;;1.53;1.30;;;4.00;98.20;;;;;;5027155;28;20844;-76
2023/03/06 00:31:53;;;;;;;1.60;1.40;;;4.00;98.20;;;;;;5014312;28;20483;-76
2023/03/06 00:34:20;;;;;;;1.50;1.30;;;4.00;98.20;;;;;;5019455;28;20459;-76
2023/03/06 00:36:48;;;;;;;1.60;1.40;;;4.00;98.20;;;;;;5005363;28;21022;-75
2023/03/06 00:39:15;;;;;;;1.60;1.30;;;4.00;98.20;;;;;;5026916;28;20479;-75
2023/03/06 00:41:41;;;;;;;1.57;1.40;;;4.00;98.20;;;;;;5014652;28;20487;-76
2023/03/06 00:44:09;;;;;;;1.60;1.40;;;4.00;98.20;;;;;;5026236;28;20476;-75
2023/03/06 00:46:35;;;;;;;1.57;1.40;;;4.00;98.20;;;;;;5012940;28;20566;-76
2023/03/06 00:49:02;;;;;;;1.60;1.40;;;4.00;98.20;;;;;;5024927;28;20467;-74
2023/03/06 00:51:29;;;;;;;1.60;1.50;;;4.00;98.20;;;;;;5012067;28;20494;-76
2023/03/06 00:53:57;;;;;;;1.53;1.30;;;4.00;98.20;;;;;;5016380;28;20455;-76
2023/03/06 00:56:24;;;;;;;1.53;1.30;;;4.00;98.20;;;;;;4999283;28;20486;-77
2023/03/06 00:58:51;;;;;;;1.70;1.60;;;4.00;98.20;;;;;;5023101;28;20474;-77
2023/03/06 01:01:18;;;;;;;1.60;1.40;;;4.00;98.20;;;;;;5011144;28;20490;-75
2023/03/06 01:03:44;;;;;;;1.60;1.50;;;4.00;98.20;;;;;;5023423;28;20487;-75
2023/03/06 01:06:11;;;;;;;1.60;1.40;;;4.00;98.20;;;;;;5010224;28;20491;-76
2023/03/06 01:08:38;;;;;;;1.57;1.30;;;4.00;98.20;;;;;;5024458;28;20474;-78
2023/03/06 01:11:06;;;;;;;1.60;1.50;;;4.00;98.20;;;;;;5010814;28;20473;-76
2023/03/06 01:13:33;;;;;;;1.60;1.37;;;4.00;98.20;;;;;;5014361;28;20461;-76
2023/03/06 01:16:07;;;;;;;1.60;1.40;;;3.90;98.20;;;;;;5000321;28;20463;-78
2023/03/06 01:18:33;;;;;;;1.60;1.43;;;3.90;98.20;;;;;;5025492;28;20463;-77
2023/03/06 01:21:00;;;;;;;1.60;1.50;;;3.80;98.20;;;;;;5003549;28;20474;-77
2023/03/06 01:23:27;;;;;;;1.60;1.40;;;3.80;98.20;;;;;;5023291;28;21061;-77
2023/03/06 01:25:54;;;;;;;1.63;1.53;;;3.80;98.20;;;;;;5010396;28;20459;-75
2023/03/06 01:28:22;;;;;;;1.60;1.37;;;3.80;98.20;;;;;;5022424;28;20463;-76
2023/03/06 01:30:49;;;;;;;1.60;1.30;;;3.80;98.20;;;;;;5004941;28;21134;-76
2023/03/06 01:33:16;;;;;;;1.60;1.50;;;3.80;98.20;;;;;;5022298;28;20464;-75
2023/03/06 01:35:43;;;;;;;1.60;1.40;;;3.80;98.20;;;;;;5021806;28;20463;-77
2023/03/06 01:38:10;;;;;;;1.60;1.30;;;3.80;98.20;;;;;;5011061;28;21009;-76
2023/03/06 01:40:38;;;;;;;1.60;1.37;;;3.70;98.20;;;;;;5021563;28;20463;-77
2023/03/06 01:43:25;;;;;;;1.57;1.30;;;3.70;98.20;;;;;;5010235;28;20490;-76
2023/03/06 01:46:29;;;;;;;1.60;1.40;;;3.70;98.20;;;;;;5008238;28;20467;-76
2023/03/06 01:48:58;;;;;;;1.57;1.30;;;3.80;98.20;;;;;;5019465;28;20459;-74
2023/03/06 01:51:30;;;;;;;1.60;1.40;;;3.80;98.20;;;;;;4999668;28;20487;-76
2023/03/06 01:54:00;;;;;;;1.60;1.50;;;3.80;98.20;;;;;;5021254;28;20459;-75
2023/03/06 01:56:28;;;;;;;1.60;1.40;;;3.80;98.20;;;;;;4999765;28;20907;-75
2023/03/06 01:58:57;;;;;;;1.60;1.40;;;3.80;98.20;;;;;;5020920;28;20463;-76
2023/03/06 02:01:25;;;;;;;1.53;1.30;;;3.80;98.20;;;;;;5006345;28;20984;-77
2023/03/06 02:03:52;;;;;;;1.70;1.60;;;3.80;98.20;;;;;;5020716;28;20494;-76
2023/03/06 02:06:20;;;;;;;1.60;1.40;;;3.80;98.20;;;;;;5010141;28;20478;-76
2023/03/06 02:08:48;;;;;;;1.60;1.40;;;3.80;98.20;;;;;;5021790;28;20471;-77
2023/03/06 02:11:17;;;;;;;1.60;1.40;;;3.80;98.20;;;;;;5009463;28;20490;-78
2023/03/06 02:13:45;;;;;;;1.60;1.40;;;3.80;98.20;;;;;;5023003;28;20466;-76
2023/03/06 02:16:14;;;;;;;1.60;1.40;;;3.80;98.20;;;;;;5006408;28;20487;-76
2023/03/06 02:18:43;;;;;;;1.60;1.40;;;3.80;98.20;;;;;;5002857;28;20468;-76
2023/03/06 02:21:13;;;;;;;1.60;1.40;;;3.80;98.20;;;;;;4993163;28;20762;-76
2023/03/06 02:23:50;;;;;;;1.60;1.40;;;3.80;98.20;;;;;;5017004;28;21257;-76
2023/03/06 02:26:20;;;;;;;1.57;1.30;;;3.80;98.20;;;;;;4995322;28;20486;-77
2023/03/06 02:28:47;;;;;;;1.60;1.30;;;3.80;98.20;;;;;;5025129;28;21154;-76
2023/03/06 02:31:22;;;;;;;1.60;1.37;;;3.80;98.20;;;;;;4997963;28;20478;-76
2023/03/06 02:34:05;;;;;;;1.50;1.30;;;3.80;98.20;;;;;;5024024;28;20790;-76
2023/03/06 02:36:35;;;;;;;1.60;1.37;;;3.70;98.20;;;;;;4995390;28;20894;-77
2023/03/06 02:39:02;;;;;;;1.60;1.40;;;3.70;98.20;;;;;;5017771;28;20471;-77
2023/03/06 02:41:30;;;;;;;1.60;1.40;;;3.70;98.20;;;;;;4999041;28;20507;-76
2023/03/06 02:43:57;;;;;;;1.60;1.40;;;3.70;98.20;;;;;;5017332;28;21076;-76
2023/03/06 02:46:23;;;;;;;1.60;1.37;;;3.70;98.20;;;;;;4998314;28;20474;-75
2023/03/06 02:48:50;;;;;;;1.60;1.40;;;3.70;98.20;;;;;;5020667;28;20456;-77
2023/03/06 02:51:17;;;;;;;1.70;1.60;;;3.70;98.20;;;;;;5005660;28;20518;-76
2023/03/06 02:53:43;;;;;;;1.57;1.37;;;3.70;98.20;;;;;;5022479;28;20647;-75
2023/03/06 02:56:10;;;;;;;1.60;1.50;;;3.70;98.20;;;;;;5000376;28;20506;-75
2023/03/06 02:58:39;;;;;;;1.57;1.30;;;3.70;98.20;;;;;;5026252;28;20949;-77
2023/03/06 03:01:06;;;;;;;1.57;1.30;;;3.70;98.20;;;;;;5003834;28;20475;-78
2023/03/06 03:03:33;;;;;;;1.57;1.37;;;3.70;98.20;;;;;;5025933;28;20997;-76
2023/03/06 03:06:00;;;;;;;1.60;1.40;;;3.70;98.20;;;;;;5003031;28;20927;-78
2023/03/06 03:08:27;;;;;;;1.57;1.30;;;3.70;98.20;;;;;;5032343;28;20568;-78
2023/03/06 03:10:55;;;;;;;1.60;1.50;;;3.70;98.20;;;;;;5003147;28;20467;-77
2023/03/06 03:13:22;;;;;;;1.60;1.50;;;3.70;98.20;;;;;;5027171;28;20472;-76
2023/03/06 03:15:59;;;;;;;1.60;1.43;;;3.70;98.20;;;;;;5006179;28;20464;-77
2023/03/06 03:18:26;;;;;;;1.60;1.50;;;3.70;98.20;;;;;;5032026;28;20472;-77
2023/03/06 03:20:53;;;;;;;1.60;1.30;;;3.70;98.20;;;;;;5001426;28;20980;-78
2023/03/06 03:23:20;;;;;;;2.20;2.00;;;3.70;98.20;;;;;;5027750;28;20492;-77
2023/03/06 03:25:47;;;;;;;1.57;1.40;;;3.70;98.20;;;;;;5011052;28;20464;-77
2023/03/06 03:28:14;;;;;;;1.60;1.50;;;3.70;98.20;;;;;;5019909;28;20479;-76
2023/03/06 03:30:41;;;;;;;1.60;1.40;;;3.80;98.20;;;;;;5013064;28;20460;-77
2023/03/06 03:33:09;;;;;;;1.60;1.40;;;3.70;98.20;;;;;;5004975;28;20472;-76
2023/03/06 03:35:37;;;;;;;1.60;1.30;;;3.70;98.20;;;;;;5012492;28;20471;-76
2023/03/06 03:38:03;;;;;;;1.57;1.30;;;3.80;98.20;;;;;;5019814;28;21296;-76
2023/03/06 03:40:30;;;;;;;1.53;1.20;;;3.70;98.20;;;;;;5003219;28;20464;-78
2023/03/06 03:42:57;;;;;;;1.60;1.40;;;3.80;98.20;;;;;;5017977;28;20498;-77
2023/03/06 03:45:24;;;;;;;1.60;1.40;;;3.80;98.20;;;;;;5012342;28;20933;-77
2023/03/06 03:47:51;;;;;;;1.60;1.50;;;3.80;98.20;;;;;;5021293;28;20862;-77
2023/03/06 03:50:20;;;;;;;1.60;1.40;;;3.70;98.20;;;;;;5011555;28;20958;-77
2023/03/06 03:52:46;;;;;;;1.60;1.47;;;3.80;98.20;;;;;;5016131;28;20479;-77
2023/03/06 03:55:13;;;;;;;1.60;1.40;;;3.70;98.20;;;;;;5010954;28;20467;-76
2023/03/06 03:57:41;;;;;;;1.60;1.40;;;3.80;98.20;;;;;;5020710;28;20840;-77
2023/03/06 04:00:14;;;;;;;1.60;1.40;;;3.80;98.20;;;;;;5012868;28;20461;-77
2023/03/06 04:02:42;;;;;;;1.60;1.47;;;3.80;98.20;;;;;;5015376;28;20479;-77
2023/03/06 04:05:09;;;;;;;1.60;1.40;;;3.80;98.20;;;;;;5012202;28;21071;-77
2023/03/06 04:07:37;;;;;;;1.60;1.40;;;3.80;98.20;;;;;;5011547;28;21019;-77
2023/03/06 04:10:05;;;;;;;1.60;1.40;;;3.80;98.20;;;;;;5013138;28;20479;-77
2023/03/06 04:12:32;;;;;;;2.73;2.53;;;3.80;98.20;;;;;;5008136;28;20487;-77
2023/03/06 04:14:58;;;;;;;1.60;1.40;;;3.80;98.20;;;;;;5012231;28;20448;-73
2023/03/06 04:17:26;;;;;;;1.60;1.40;;;3.80;98.20;;;;;;5007853;28;20467;-77
2023/03/06 04:19:53;;;;;;;1.60;1.30;;;3.80;98.20;;;;;;5008491;28;20474;-77
2023/03/06 04:22:20;;;;;;;1.60;1.40;;;3.80;98.20;;;;;;5017030;28;20494;-76
2023/03/06 04:24:48;;;;;;;1.60;1.40;;;3.80;98.20;;;;;;5014431;28;21020;-76
2023/03/06 04:27:15;;;;;;;1.60;1.37;;;3.80;98.20;;;;;;5008935;28;20482;-76
2023/03/06 04:29:42;;;;;;;1.57;1.30;;;3.80;98.20;;;;;;5004584;28;20471;-78
2023/03/06 04:32:09;;;;;;;1.60;1.40;;;3.80;98.20;;;;;;5010674;28;20484;-75
2023/03/06 04:34:35;;;;;;;1.60;1.50;;;3.80;98.20;;;;;;5023441;28;20470;-77
2023/03/06 04:37:02;;;;;;;1.67;1.57;;;3.80;98.20;;;;;;5012680;28;20553;-77
2023/03/06 04:39:29;;;;;;;1.60;1.30;;;3.90;98.20;;;;;;5019520;28;20974;-75
2023/03/06 04:41:57;;;;;;;1.60;1.50;;;3.80;98.20;;;;;;5012704;28;20483;-77
2023/03/06 04:44:24;;;;;;;1.60;1.50;;;3.80;98.20;;;;;;5023167;28;20495;-76
2023/03/06 04:46:51;;;;;;;1.60;1.40;;;3.80;98.20;;;;;;5011627;28;20487;-78
2023/03/06 04:49:17;;;;;;;1.60;1.40;;;3.80;98.20;;;;;;5023472;28;20472;-77
2023/03/06 04:51:44;;;;;;;1.60;1.37;;;3.80;98.20;;;;;;5013727;28;20487;-77
2023/03/06 04:54:11;;;;;;;1.70;1.50;;;3.90;98.20;;;;;;5023255;28;20460;-77
2023/03/06 04:56:37;;;;;;;1.53;1.30;;;3.90;98.20;;;;;;5009427;28;20490;-77
2023/03/06 04:59:06;;;;;;;1.60;1.40;;;3.90;98.20;;;;;;5023251;28;20472;-77
2023/03/06 05:01:33;;;;;;;1.60;1.40;;;3.90;98.20;;;;;;5013683;28;20951;-76
2023/03/06 05:04:00;;;;;;;1.60;1.40;;;3.90;98.20;;;;;;5020430;28;20491;-75
2023/03/06 05:06:27;;;;;;;1.60;1.50;;;3.90;98.20;;;;;;5003750;28;20476;-76
2023/03/06 05:08:54;;;;;;;1.60;1.40;;;3.90;98.20;;;;;;5012190;28;20500;-76
2023/03/06 05:11:20;;;;;;;1.60;1.50;;;3.90;98.20;;;;;;5008763;28;20533;-77
2023/03/06 05:13:48;;;;;;;1.60;1.40;;;3.90;98.20;;;;;;5027410;28;20461;-77
2023/03/06 05:16:16;;;;;;;1.60;1.30;;;3.90;98.20;;;;;;5012063;28;20483;-77
2023/03/06 05:18:43;;;;;;;1.57;1.30;;;3.90;98.20;;;;;;5027202;28;20542;-75
2023/03/06 05:21:09;;;;;;;1.60;1.40;;;3.80;98.20;;;;;;5009555;28;20864;-75
2023/03/06 05:23:38;;;;;;;3.67;3.40;;;3.80;98.20;;;;;;5027167;28;20834;-75
2023/03/06 05:26:07;;;;;;;1.53;1.30;;;3.80;98.20;;;;;;5006611;28;20602;-74
2023/03/06 05:28:34;;;;;;;1.60;1.50;;;3.80;98.20;;;;;;5026322;28;20828;-74
2023/03/06 05:31:01;;;;;;;1.60;1.40;;;3.90;98.20;;;;;;5004695;28;20896;-74
2023/03/06 05:33:30;;;;;;;1.60;1.47;;;3.90;98.20;;;;;;5004579;28;20539;-73
2023/03/06 05:35:57;;;;;;;2.60;2.40;;;3.80;98.20;;;;;;5006029;28;20474;-73
2023/03/06 05:38:24;;;;;;;1.60;1.40;;;3.90;98.20;;;;;;5003252;28;20474;-74
2023/03/06 05:40:51;;;;;;;1.60;1.40;;;3.90;98.20;;;;;;5005250;28;20491;-73
2023/03/06 05:43:18;;;;;;;1.60;1.40;;;3.90;98.20;;;;;;5008335;28;20961;-74
2023/03/06 05:45:45;;;;;;;1.60;1.40;;;3.90;98.20;;;;;;5014533;28;20483;-74
2023/03/06 05:48:13;;;;;;;1.60;1.47;;;3.90;98.20;;;;;;5019661;28;20487;-74
2023/03/06 05:50:42;;;;;;;1.60;1.50;;;3.80;98.20;;;;;;5010391;28;20964;-74
2023/03/06 05:53:12;;;;;;;3.10;2.80;;;3.80;98.20;;;;;;5021234;28;20926;-74
2023/03/06 05:55:40;;;;;;;1.57;1.30;;;3.80;98.20;;;;;;5021150;28;20459;-75
2023/03/06 05:58:35;;;;;;;1.60;1.40;;;3.80;98.20;;;;;;5001671;28;20484;-74
2023/03/06 06:01:27;;;;;;;1.60;1.40;;;3.80;98.20;;;;;;5010500;28;20459;-74
2023/03/06 06:03:54;;;;;;;1.60;1.40;;;3.80;98.20;;;;;;5014703;28;20870;-75
2023/03/06 06:06:22;;;;;;;1.73;1.63;;;3.80;98.20;;;;;;5011812;28;20482;-74
2023/03/06 06:08:49;;;;;;;1.57;1.30;;;3.80;98.20;;;;;;5032876;28;20545;-74
2023/03/06 06:11:17;;;;;;;1.60;1.40;;;3.80;98.20;;;;;;5011229;28;20487;-74
2023/03/06 06:13:44;;;;;;;1.60;1.30;;;3.80;98.20;;;;;;5007878;28;20463;-74
2023/03/06 06:16:14;;;;;;;4.03;3.73;;;3.80;98.20;;;;;;5003435;28;20486;-75
2023/03/06 06:18:41;;;;;;;1.60;1.40;;;3.90;98.20;;;;;;5027561;28;21003;-74
2023/03/06 06:21:11;;;;;;;1.60;1.40;;;3.80;98.20;;;;;;5007435;28;20484;-74
2023/03/06 06:23:39;;;;;;;1.60;1.43;;;3.90;98.20;;;;;;5035158;28;20455;-74
2023/03/06 06:26:07;;;;;;;1.60;1.50;;;3.90;98.20;;;;;;5007208;28;20460;-74
2023/03/06 06:28:35;;;;;;;2.70;2.50;;;3.90;98.20;;;;;;5010839;28;21185;-74
2023/03/06 06:31:07;;;;;;;1.53;1.30;;;3.90;98.20;;;;;;5007006;28;20459;-74
2023/03/06 06:33:34;;;;;;;1.60;1.47;;;3.90;98.20;;;;;;5010831;28;20455;-74
2023/03/06 06:36:01;;;;;;;1.50;1.30;;;3.90;98.20;;;;;;5010798;28;20462;-74
2023/03/06 06:38:28;;;;;;;1.53;1.30;;;3.90;98.20;;;;;;5011153;28;20460;-74
2023/03/06 06:40:56;;;;;;;1.60;1.40;;;3.90;98.20;;;;;;5010080;28;20954;-74
2023/03/06 06:43:23;;;;;;;1.57;1.30;;;3.90;98.20;;;;;;5011430;28;20459;-73
2023/03/06 06:45:51;;;;;;;1.57;1.30;;;3.90;98.20;;;;;;5006026;28;20490;-74
2023/03/06 06:48:17;;;;;;;1.60;1.50;;;3.90;98.20;;;;;;5036997;28;20467;-74
2023/03/06 06:50:44;;;;;;;1.60;1.40;;;3.90;98.20;;;;;;5027579;28;20462;-74
2023/03/06 06:53:11;;;;;;;1.60;1.40;;;3.90;98.20;;;;;;5011292;28;20511;-74
2023/03/06 06:55:38;;;;;;;1.53;1.30;;;3.90;98.20;;;;;;5017141;28;20534;-74
2023/03/06 06:58:06;;;;;;;2.67;2.47;;;4.00;98.20;;;;;;5012735;28;20486;-74
2023/03/06 07:00:33;;;;;;;1.70;1.60;;;3.90;98.20;;;;;;5022736;28;20965;-76
2023/03/06 07:03:00;;;;;;;1.57;1.30;;;3.90;98.20;;;;;;5014442;28;20483;-76
2023/03/06 07:05:27;;;;;;;1.60;1.40;;;3.90;98.20;;;;;;5015166;28;20494;-75
2023/03/06 07:07:53;;;;;;;2.47;2.27;;;3.90;98.20;;;;;;5004612;28;20498;-76
2023/03/06 07:10:20;;;;;;;1.50;1.30;;;3.90;98.20;;;;;;5016364;28;20555;-77
2023/03/06 07:12:47;;;;;;;1.60;1.30;;;3.90;98.20;;;;;;5017745;28;20497;-76
2023/03/06 07:15:18;;;;;;;1.57;1.40;;;3.90;98.20;;;;;;5002962;28;20461;-76
2023/03/06 07:17:44;;;;;;;1.60;1.30;;;3.90;98.20;;;;;;5013633;28;20719;-76
2023/03/06 07:20:12;;;;;;;1.60;1.47;;;3.90;98.20;;;;;;5017469;28;20507;-74
2023/03/06 07:22:38;;;;;;;1.60;1.47;;;3.90;98.20;;;;;;5015720;28;20478;-74
2023/03/06 07:25:06;;;;;;;1.60;1.43;;;3.90;98.20;;;;;;5017304;28;21033;-77
2023/03/06 07:27:33;;;;;;;1.60;1.47;;;4.00;98.20;;;;;;5010362;28;20480;-77
2023/03/06 07:30:00;;;;;;;1.53;1.30;;;4.10;98.20;;;;;;5017584;28;20466;-76
2023/03/06 07:32:28;;;;;;;1.60;1.30;;;4.10;98.20;;;;;;5015900;28;20483;-74
2023/03/06 07:34:55;;;;;;;1.60;1.50;;;4.20;98.20;;;;;;5019703;28;20565;-77
2023/03/06 07:37:22;;;;;;;1.60;1.40;;;4.30;98.20;;;;;;5009508;28;20476;-76
2023/03/06 07:39:49;;;;;;;1.60;1.30;;;4.30;98.20;;;;;;5020287;28;20539;-77
2023/03/06 07:42:16;;;;;;;1.57;1.30;;;4.40;98.20;;;;;;5011169;28;20492;-77
2023/03/06 07:44:43;;;;;;;1.57;1.30;;;4.40;98.20;;;;;;5020865;28;20545;-80
2023/03/06 07:47:12;;;;;;;1.57;1.30;;;4.40;98.20;;;;;;5012758;28;20479;-76
2023/03/06 07:49:41;;;;;;;1.60;1.30;;;4.50;98.20;;;;;;5022794;28;20472;-78
2023/03/06 07:52:07;;;;;;;1.60;1.40;;;4.50;98.20;;;;;;5013671;28;20491;-76
2023/03/06 07:54:34;;;;;;;1.60;1.40;;;4.60;98.20;;;;;;5020819;28;20460;-76
2023/03/06 07:57:02;;;;;;;1.60;1.40;;;4.60;98.20;;;;;;5007909;28;20542;-74
2023/03/06 07:59:29;;;;;;;1.53;1.30;;;4.70;98.20;;;;;;5018570;28;20467;-75
2023/03/06 08:01:56;;;;;;;1.57;1.30;;;4.70;98.20;;;;;;5009383;28;20502;-74
2023/03/06 08:04:23;;;;;;;1.60;1.30;;;4.70;98.20;;;;;;5017071;28;20460;-76
2023/03/06 08:06:52;;;;;;;1.60;1.30;;;4.70;98.20;;;;;;5010320;28;20485;-75
2023/03/06 08:09:19;;;;;;;1.60;1.40;;;4.70;98.20;;;;;;5014652;28;20464;-75
2023/03/06 08:11:46;;;;;;;1.50;1.30;;;4.80;98.20;;;;;;5000934;28;20482;-75
2023/03/06 08:14:13;;;;;;;1.60;1.40;;;4.80;98.20;;;;;;5014037;28;20552;-75
2023/03/06 08:16:39;;;;;;;1.60;1.37;;;4.80;98.20;;;;;;4998215;28;20467;-73
2023/03/06 08:19:07;;;;;;;1.60;1.40;;;4.90;98.20;;;;;;5012257;28;20463;-72
2023/03/06 08:21:34;;;;;;;1.57;1.30;;;4.90;98.20;;;;;;5010426;28;20510;-73
2023/03/06 08:24:03;;;;;;;1.60;1.30;;;4.90;98.20;;;;;;5012402;28;20842;-72
2023/03/06 08:26:32;;;;;;;1.60;1.30;;;4.90;98.20;;;;;;5006429;28;20515;-73
2023/03/06 08:29:00;;;;;;;1.57;1.30;;;4.90;98.20;;;;;;5014551;28;20853;-72
2023/03/06 08:31:30;;;;;;;1.53;1.30;;;4.90;98.20;;;;;;5007137;28;20483;-74
2023/03/06 08:33:58;;;;;;;1.50;1.30;;;5.00;98.20;;;;;;5017195;28;20882;-75
2023/03/06 08:36:25;;;;;;;1.60;1.40;;;5.00;98.20;;;;;;5002887;28;20556;-75
2023/03/06 08:38:52;;;;;;;1.60;1.30;;;5.10;98.20;;;;;;5009660;28;21807;-74
2023/03/06 08:41:21;;;;;;;1.60;1.30;;;5.20;98.20;;;;;;5003307;28;20483;-75
2023/03/06 08:43:48;;;;;;;1.60;1.37;;;5.30;98.20;;;;;;5019329;28;20464;-75
2023/03/06 08:46:15;;;;;;;1.60;1.40;;;5.30;98.20;;;;;;5013519;28;21007;-76
2023/03/06 08:48:42;;;;;;;1.50;1.30;;;5.40;98.20;;;;;;5022610;28;20470;-74
2023/03/06 08:51:10;;;;;;;3.43;3.13;;;5.40;98.20;;;;;;5006086;28;20926;-76
2023/03/06 08:53:37;;;;;;;1.57;1.30;;;5.40;98.20;;;;;;5020131;28;20554;-74
2023/03/06 08:56:04;;;;;;;1.57;1.30;;;5.40;98.20;;;;;;5014354;28;21026;-73
2023/03/06 08:58:32;;;;;;;1.60;1.40;;;5.40;98.20;;;;;;5021914;28;20468;-73
2023/03/06 09:00:59;;;;;;;1.60;1.37;;;5.50;98.20;;;;;;5010930;28;20567;-76
2023/03/06 09:03:26;;;;;;;1.53;1.20;;;5.50;98.20;;;;;;5021319;28;20466;-75
2023/03/06 09:05:53;;;;;;;1.60;1.30;;;5.60;98.20;;;;;;5007765;28;20493;-75
2023/03/06 09:10:52;;;;;;;1.60;1.30;;;5.60;98.20;;;;;;5021720;28;20471;-74
2023/03/06 09:13:21;;;;;;;1.60;1.30;;;5.60;98.20;;;;;;5043964;28;20463;-74
2023/03/06 09:15:49;;;;;;;1.53;1.30;;;5.60;98.20;;;;;;5030430;28;20463;-74
2023/03/06 09:18:16;;;;;;;1.60;1.20;;;5.60;98.20;;;;;;5033658;28;20475;-74
2023/03/06 09:20:43;;;;;;;1.63;1.53;;;5.60;98.20;;;;;;5014155;28;20976;-74
2023/03/06 09:23:10;;;;;;;1.50;1.20;;;5.60;98.20;;;;;;5002026;28;20534;-75
2023/03/06 09:25:37;;;;;;;1.57;1.30;;;5.60;98.20;;;;;;5013226;28;20980;-74
2023/03/06 09:28:03;;;;;;;1.53;1.20;;;5.60;98.20;;;;;;5003456;28;20778;-74
2023/03/06 09:30:30;;;;;;;1.53;1.20;;;5.70;98.20;;;;;;5009450;28;20483;-74
2023/03/06 09:32:58;;;;;;;1.50;1.20;;;5.70;98.20;;;;;;5004879;28;21026;-74
2023/03/06 09:35:25;;;;;;;1.50;1.20;;;5.70;98.20;;;;;;5009968;28;20472;-74
2023/03/06 09:37:52;;;;;;;1.53;1.23;;;5.70;98.20;;;;;;5003606;28;20490;-74
2023/03/06 09:40:25;;;;;;;1.57;1.33;;;5.70;98.20;;;;;;5011380;28;20526;-74
2023/03/06 09:42:52;;;;;;;1.60;1.30;;;5.60;98.20;;;;;;5012994;28;20572;-75
2023/03/06 09:45:20;;;;;;;1.53;1.30;;;5.60;98.20;;;;;;5011638;28;20566;-74
2023/03/06 09:47:51;;;;;;;1.53;1.20;;;5.70;98.20;;;;;;5005363;28;20479;-75
2023/03/06 09:50:32;;;;;;;1.50;1.20;;;5.70;98.20;;;;;;5012209;28;20508;-74
2023/03/06 09:53:08;;;;;;;1.60;1.40;;;5.70;98.20;;;;;;5012126;28;20853;-74
2023/03/06 09:55:37;;;;;;;1.50;1.20;;;5.70;98.20;;;;;;5009705;28;20922;-73
2023/03/06 09:58:09;;;;;;;1.60;1.30;;;5.70;98.20;;;;;;5014125;28;20490;-74
2023/03/06 10:00:40;;;;;;;1.60;1.30;;;5.70;98.20;;;;;;5016916;28;20503;-75
2023/03/06 10:03:22;;;;;;;1.60;1.40;;;5.70;98.20;;;;;;5008075;28;20571;-75
2023/03/06 10:05:55;;;;;;;1.57;1.20;;;5.70;98.20;;;;;;5008571;28;20593;-75
2023/03/06 10:08:25;;;;;;;2.03;1.80;;;5.80;98.20;;;;;;5014197;28;20476;-75
2023/03/06 10:11:00;;;;;;;6.17;5.60;;;5.90;98.20;;;;;;5003506;28;20463;-74
2023/03/06 10:13:32;;;;;;;1.50;1.20;;;6.00;98.20;;;;;;5021735;28;20463;-74
2023/03/06 10:16:12;;;;;;;1.50;1.20;;;6.00;98.20;;;;;;5008373;28;20451;-75
2023/03/06 10:18:39;;;;;;;1.60;1.47;;;6.00;98.20;;;;;;5017770;28;20480;-75
2023/03/06 10:21:24;;;;;;;1.60;1.43;;;5.90;98.20;;;;;;5005870;28;20463;-75
2023/03/06 10:23:53;;;;;;;1.50;1.20;;;5.80;98.20;;;;;;5021522;28;20838;-76
2023/03/06 10:26:24;;;;;;;1.57;1.30;;;5.70;98.20;;;;;;5009407;28;20926;-76
2023/03/06 10:29:01;;;;;;;1.57;1.20;;;5.60;98.20;;;;;;5015623;28;20865;-76
2023/03/06 10:31:28;;;;;;;1.60;1.20;;;5.50;98.20;;;;;;5006456;28;20482;-76
2023/03/06 10:33:57;;;;;;;1.53;1.20;;;5.40;98.20;;;;;;5011890;28;20489;-76
2023/03/06 10:36:28;;;;;;;1.50;1.30;;;5.40;98.20;;;;;;5008634;28;20899;-75
2023/03/06 10:38:56;;;;;;;1.53;1.20;;;5.30;98.20;;;;;;5020820;28;20514;-74
2023/03/06 10:41:26;;;;;;;1.67;1.50;;;5.20;98.20;;;;;;5004177;28;20482;-77
2023/03/06 10:44:19;;;;;;;1.50;1.20;;;5.20;98.20;;;;;;5021991;28;20459;-76
2023/03/06 10:46:47;;;;;;;1.60;1.27;;;5.20;98.20;;;;;;5009274;28;20954;-76
2023/03/06 10:49:28;;;;;;;1.57;1.20;;;5.20;98.20;;;;;;5019763;28;20480;-76
2023/03/06 10:52:00;;;;;;;1.50;1.33;;;5.20;98.20;;;;;;5007264;28;20474;-74
2023/03/06 10:54:31;;;;;;;1.53;1.30;;;5.20;98.20;;;;;;5018420;28;20555;-76
2023/03/06 10:56:58;;;;;;;1.63;1.43;;;5.30;98.20;;;;;;5004392;28;20920;-76
2023/03/06 10:59:27;;;;;;;2.63;2.43;;;5.30;98.20;;;;;;5013295;28;20985;-76
2023/03/06 11:01:56;;;;;;;1.50;1.20;;;5.40;98.20;;;;;;5008698;28;20569;-75
2023/03/06 11:04:26;;;;;;;1.60;1.37;;;5.40;98.20;;;;;;5018177;28;20464;-73
2023/03/06 11:07:12;;;;;;;2.03;1.80;;;5.50;98.20;;;;;;5007657;28;20483;-75
2023/03/06 11:09:39;;;;;;;1.50;1.30;;;5.50;98.20;;;;;;5014896;28;21015;-75
2023/03/06 11:12:22;;;;;;;1.53;1.20;;;5.50;98.20;;;;;;5008729;28;20487;-76
2023/03/06 11:15:17;;;;;;;1.53;1.30;;;5.50;98.20;;;;;;5016081;28;20460;-76
2023/03/06 11:17:57;;;;;;;1.57;1.30;;;5.60;98.20;;;;;;5014425;28;20483;-76
2023/03/06 11:20:27;;;;;;;1.57;1.30;;;5.60;98.20;;;;;;5009790;28;20475;-76
2023/03/06 11:23:03;;;;;;;1.60;1.30;;;5.60;98.20;;;;;;5006926;28;20494;-76
2023/03/06 11:25:33;;;;;;;1.57;1.20;;;5.70;98.20;;;;;;5011914;28;20495;-76
2023/03/06 11:28:04;;;;;;;1.80;1.70;;;5.80;98.20;;;;;;5003570;28;20483;-75
2023/03/06 11:30:39;;;;;;;1.57;1.40;;;5.90;98.20;;;;;;5011847;28;20487;-76
2023/03/06 11:33:15;;;;;;;1.60;1.50;;;6.00;98.20;;;;;;5005110;28;21019;-76
2023/03/06 11:35:50;;;;;;;1.50;1.20;;;6.00;98.20;;;;;;5013178;28;20456;-75
2023/03/06 11:38:23;;;;;;;1.60;1.20;;;6.00;98.20;;;;;;5005716;28;20498;-75
2023/03/06 11:40:53;;;;;;;1.50;1.20;;;6.00;98.20;;;;;;4997910;28;20460;-76
2023/03/06 11:43:25;;;;;;;1.53;1.27;;;5.90;98.20;;;;;;5017185;28;20460;-76
2023/03/06 11:45:57;;;;;;;1.60;1.30;;;5.90;98.20;;;;;;5005918;28;20952;-75
2023/03/06 11:48:28;;;;;;;1.57;1.20;;;5.80;98.20;;;;;;5017912;28;20828;-76
2023/03/06 11:51:02;;;;;;;1.53;1.30;;;5.70;98.20;;;;;;5006636;28;20466;-77
2023/03/06 11:53:34;;;;;;;1.50;1.30;;;5.70;98.20;;;;;;5015354;28;21170;-77
2023/03/06 11:56:10;;;;;;;1.57;1.20;;;5.70;98.20;;;;;;4999765;28;20451;-76
2023/03/06 11:58:56;;;;;;;1.53;1.27;;;5.70;98.20;;;;;;5016588;28;20456;-76
2023/03/06 12:01:27;;;;;;;1.50;1.30;;;5.70;98.20;;;;;;5003799;28;21150;-75
2023/03/06 12:04:16;;;;;;;1.53;1.30;;;5.80;98.20;;;;;;5011738;28;20463;-75
2023/03/06 12:06:51;;;;;;;1.60;1.20;;;5.80;98.20;;;;;;5004557;28;20887;-75
2023/03/06 12:09:32;;;;;;;1.60;1.30;;;5.90;98.20;;;;;;5011557;28;20490;-75
2023/03/06 12:12:18;;;;;;;1.57;1.30;;;5.90;98.20;;;;;;5008790;28;20490;-78
2023/03/06 12:14:59;;;;;;;1.50;1.30;;;5.90;98.20;;;;;;5016603;28;20492;-78
2023/03/06 12:17:41;;;;;;;1.70;1.50;;;5.90;98.20;;;;;;5007125;28;20479;-77
2023/03/06 12:20:23;;;;;;;1.57;1.30;;;5.80;98.20;;;;;;5009171;28;20480;-77
2023/03/06 12:22:51;;;;;;;1.50;1.20;;;5.80;98.20;;;;;;5008424;28;20491;-75
2023/03/06 12:25:29;;;;;;;1.50;1.20;;;5.80;98.20;;;;;;5005113;28;20508;-76
2023/03/06 12:28:11;;;;;;;1.50;1.20;;;5.80;98.20;;;;;;5002575;28;20486;-77
2023/03/06 12:31:01;;;;;;;1.50;1.20;;;5.80;98.20;;;;;;5022792;28;20475;-74
2023/03/06 12:33:33;;;;;;;1.60;1.40;;;5.90;98.20;;;;;;4991798;28;20476;-74
2023/03/06 12:36:17;;;;;;;2.47;2.27;;;5.90;98.20;;;;;;4999090;28;20960;-76
2023/03/06 12:38:59;;;;;;;1.57;1.30;;;6.00;98.20;;;;;;5033985;28;20854;-76
2023/03/06 12:41:40;;;;;;;1.50;1.20;;;6.00;98.20;;;;;;5009648;28;20986;-75
2023/03/06 12:44:33;;;;;;;1.50;1.20;;;6.00;98.20;;;;;;5024367;28;20464;-75
2023/03/06 12:47:03;;;;;;;1.50;1.20;;;6.00;98.20;;;;;;5003648;28;20522;-75
2023/03/06 12:49:33;;;;;;;1.60;1.30;;;6.00;98.20;;;;;;5000237;28;20935;-75
2023/03/06 12:52:02;;;;;;;1.63;1.47;;;6.00;98.20;;;;;;5002473;28;20768;-75
2023/03/06 12:54:31;;;;;;;1.53;1.27;;;5.90;98.20;;;;;;5019241;28;20558;-74
2023/03/06 12:57:00;;;;;;;1.57;1.20;;;5.90;98.20;;;;;;5003475;28;20479;-75
2023/03/06 12:59:39;;;;;;;1.57;1.20;;;5.90;98.20;;;;;;5021878;28;20495;-74
2023/03/06 13:02:30;;;;;;;1.57;1.23;;;5.90;98.20;;;;;;5014672;28;20509;-75
2023/03/06 13:05:12;;;;;;;1.60;1.30;;;5.90;98.20;;;;;;5020128;28;20806;-75
2023/03/06 13:07:55;;;;;;;1.57;1.30;;;6.00;98.20;;;;;;5017555;28;20984;-74
2023/03/06 13:10:25;;;;;;;1.60;1.40;;;6.00;98.20;;;;;;5011333;28;20645;-74
2023/03/06 13:12:56;;;;;;;1.50;1.20;;;6.10;98.20;;;;;;4999636;28;20558;-75